Sign-in with your pilot id or email, or register

ICAO: YSSY Name / Country: Sydney International Airport / Australia
Latitude: -33.9461 Longitude: 151.177
Total Arrivals:
Strict Standards: Non-static method AirportData::getarrflights() should not be called statically, assuming $this from incompatible context in /var/www/customers/vh-7192/web/home/phpvms/core/templates/airport_info.tpl on line 18
3
Total Departures:
Strict Standards: Non-static method AirportData::getdeptflights() should not be called statically, assuming $this from incompatible context in /var/www/customers/vh-7192/web/home/phpvms/core/templates/airport_info.tpl on line 21
5
Latest Arrival: MTA5PM (YBBN-YSSY) Tibor Berces Latest Departure: MTA5PM (YSSY-NZAA) Tibor Berces
Metar: YSSY 151700Z 26015KT 9999 -DZ BKN037 11/04 Q1016 FM1700 MOD TURB BLW 5000FT
More info

Charts for YSSY


NOTAM


Warning: file_get_contents(http://api.vateud.net/notams/YSSY.json): failed to open stream: Redirection limit reached, aborting in /var/www/customers/vh-7192/web/home/phpvms/core/common/NOTAMSData.class.php on line 18

Warning: Invalid argument supplied for foreach() in /var/www/customers/vh-7192/web/home/phpvms/core/common/NOTAMSData.class.php on line 22

Sydney International Airport